Homestead ARB Airport
KHST : now visible

Airfield :











YOU CAN JOIN US ON...

 
LOGIN :

Register | Disclaimer

   EN    FR    IT 

 









Legend :    VFR   Marginal VFR   IFR   Intensive IFR   Very Intensive IFR
Visi :
Ceiling :
>= 8 km
>= 3000ft
5 to 8 km
1000 to 3000 ft
1500m to 5 km
500 to 1000 ft
800 to 1500m
200 to 500 ft
< 800m
< 200 ft
Symbols :   Thunderstorms  Fog  Heavy snow  Heavy precipitations  Wind > 20 kt






- Airport Elevation : 5 ft


KHST - Homestead ARB

CURRENT METAR :
  • 200856Z AUTO 17004KT 10SM OVC180 27/25 A2988 RMK AO2 SLP122 T02680253 55002

EXPIRED METARs :
  • 200756Z AUTO 16004KT 10SM FEW025 27/26 A2986 RMK AO2 SLP115 T02720256
  • 200656Z AUTO 17004KT 10SM CLR 27/25 A2987 RMK AO2 SLP118 T02730253

TAF TAF KHST
Valid from the 20 at 08:00 until the 21 at 14:00 UTC


200800Z 2008/2114 16005KT 9999 SCT020 QNH2986INS
BECMG 2013/2014 20009KT 9000 -SHRA VCTS SCT010CB BKN030 QNH2991INS
TEMPO 2014/2020 9000 TSRA BKN010CB BKN025
BECMG 2020/2021 VRB06KT 9999 NSW SCT010 BKN030 QNH2991INS
BECMG 2104/2105 VRB06KT 9999 SCT004 BKN010 QNH2994INS TX30/2020Z TN26/2011Z



MET'MAP, your aeronautical weather chart ! - Copyright ORBIFLY December 2007 - Disclaimer

ORBIFLY MET'MAP TEAM :

Programming & Development : Alexandra Zaïnal
Concept & Development : Baudouin d'Aumeries
Co-Development & Prog : Marc-Olivier Méhu
Technical & hardware support : Manuel Goepfert

Contact : metmap@orbifly.com




SOURCES & CREDITS :

   NOAA       Earth
Advisory